Time;durP1;ratioP1;P1;durP2;ratioP2;P2;SDS_P1;SDS_P2;PMS_P1;PMS_P2;Temp;Humidity;BMP_temperature;BMP_pressure;BME280_temperature;BME280_humidity;BME280_pressure;Samples;Min_cycle;Max_cycle;Signal;HPM_P1;HPM_P2
2022/08/31 00:04:11;;;;;;;6.00;2.50;;;;;;;16.44;71.21;98260.52;105630;1282;23360;-83
2022/08/31 00:06:39;;;;;;;5.00;3.00;;;;;;;16.29;71.16;98255.17;105447;1282;22721;-86
2022/08/31 00:09:07;;;;;;;5.80;2.40;;;;;;;15.97;71.97;98257.60;105603;1282;22620;-86
2022/08/31 00:11:36;;;;;;;4.20;2.30;;;;;;;15.60;72.78;98260.17;105612;1282;22568;-88
2022/08/31 00:14:08;;;;;;;3.10;2.10;;;;;;;15.40;73.36;98265.51;105611;1282;24286;-87
2022/08/31 00:16:43;;;;;;;3.50;2.30;;;;;;;15.39;74.07;98261.83;105607;1282;22828;-85
2022/08/31 00:19:12;;;;;;;3.70;2.30;;;;;;;15.58;74.94;98262.06;105709;1282;22546;-86
2022/08/31 00:21:41;;;;;;;5.50;2.90;;;;;;;15.78;74.45;98265.28;105617;1282;22542;-86
2022/08/31 00:24:13;;;;;;;4.60;2.80;;;;;;;15.98;74.51;98262.02;105620;1282;22659;-86
2022/08/31 00:26:42;;;;;;;3.70;2.10;;;;;;;16.25;74.90;98260.85;105668;1282;22675;-86
2022/08/31 00:29:11;;;;;;;3.30;2.30;;;;;;;16.47;73.89;98258.06;105779;1281;24226;-86
2022/08/31 00:31:40;;;;;;;3.20;2.50;;;;;;;16.62;73.78;98258.73;105536;1283;22583;-85
2022/08/31 00:34:08;;;;;;;3.40;2.60;;;;;;;16.60;73.14;98260.70;105483;1282;22668;-86
2022/08/31 00:36:37;;;;;;;4.60;2.30;;;;;;;16.57;73.83;98257.52;105169;1282;22586;-84
2022/08/31 00:39:06;;;;;;;4.80;2.50;;;;;;;16.69;73.83;98257.61;105492;1282;22544;-88
2022/08/31 00:41:37;;;;;;;4.00;1.90;;;;;;;16.69;73.11;98254.34;105711;1282;24354;-87
2022/08/31 00:44:08;;;;;;;3.00;2.40;;;;;;;16.64;73.08;98252.52;105873;1282;22554;-86
2022/08/31 00:46:40;;;;;;;2.80;2.50;;;;;;;16.38;72.94;98251.58;105659;1282;25362;-87
2022/08/31 00:49:22;;;;;;;6.00;5.30;;;;;;;16.05;73.39;98248.15;105741;1282;25308;-87
2022/08/31 00:52:08;;;;;;;4.20;2.70;;;;;;;15.84;73.68;98249.49;105707;1280;22541;-86
2022/08/31 00:54:45;;;;;;;3.60;2.50;;;;;;;15.63;73.79;98252.23;105518;1283;22562;-85
2022/08/31 00:57:14;;;;;;;4.00;2.90;;;;;;;15.53;74.65;98249.51;105679;1282;22547;-85
2022/08/31 00:59:48;;;;;;;3.40;2.40;;;;;;;15.55;74.23;98249.08;105451;1284;25530;-87
2022/08/31 01:02:17;;;;;;;4.30;3.00;;;;;;;15.59;74.51;98248.92;105696;1282;23566;-86
2022/08/31 01:04:45;;;;;;;3.20;2.60;;;;;;;15.64;74.13;98250.16;105700;1282;23044;-86
2022/08/31 01:07:13;;;;;;;5.90;2.90;;;;;;;15.68;74.19;98252.29;106014;1283;25365;-86
2022/08/31 01:09:42;;;;;;;4.30;2.60;;;;;;;15.70;74.27;98251.42;105373;1282;25413;-86
2022/08/31 01:12:25;;;;;;;3.90;2.90;;;;;;;15.69;74.48;98250.46;105679;1282;22628;-86
2022/08/31 01:14:54;;;;;;;6.10;2.30;;;;;;;15.74;74.31;98249.81;105621;1282;22570;-85
2022/08/31 01:17:22;;;;;;;5.20;2.70;;;;;;;15.61;74.15;98253.23;105438;1283;23410;-87
2022/08/31 01:20:06;;;;;;;4.30;3.00;;;;;;;15.61;74.67;98251.58;105605;1282;24394;-86
2022/08/31 01:23:13;;;;;;;5.30;2.90;;;;;;;15.72;75.56;98252.59;105626;1282;22601;-84
2022/08/31 01:25:43;;;;;;;5.00;3.10;;;;;;;15.93;74.56;98251.70;105677;1282;22594;-87
2022/08/31 01:28:12;;;;;;;6.10;2.40;;;;;;;15.74;73.92;98251.77;105548;1282;22580;-86
2022/08/31 01:30:43;;;;;;;3.20;2.60;;;;;;;15.50;74.34;98253.36;105728;1282;24211;-88
2022/08/31 01:33:12;;;;;;;4.80;2.60;;;;;;;15.42;74.71;98251.96;105626;1282;22548;-89
2022/08/31 01:35:44;;;;;;;5.80;3.80;;;;;;;15.52;75.42;98250.73;105345;1284;22587;-88
2022/08/31 01:38:13;;;;;;;5.70;3.70;;;;;;;15.68;75.56;98253.15;105444;1282;23945;-88
2022/08/31 01:40:50;;;;;;;4.70;3.10;;;;;;;15.80;74.79;98250.24;105706;1282;24750;-88
2022/08/31 01:43:19;;;;;;;3.30;2.50;;;;;;;15.69;74.67;98252.67;105624;1282;22778;-89
2022/08/31 01:45:47;;;;;;;3.90;2.50;;;;;;;15.86;76.98;98247.21;105472;1282;24449;-89
2022/08/31 01:48:16;;;;;;;3.30;2.50;;;;;;;16.13;76.75;98244.60;105705;1282;25427;-87
2022/08/31 01:50:45;;;;;;;4.60;3.40;;;;;;;16.42;75.92;98248.94;105381;1282;24430;-87
2022/08/31 01:53:14;;;;;;;5.50;2.50;;;;;;;16.49;74.90;98249.81;105416;1282;26695;-86
2022/08/31 01:55:45;;;;;;;2.70;2.30;;;;;;;16.34;74.69;98256.17;105434;1282;22612;-88
2022/08/31 01:58:14;;;;;;;7.00;2.70;;;;;;;16.41;76.30;98256.13;105506;1282;22626;-89
2022/08/31 02:01:19;;;;;;;3.20;2.70;;;;;;;16.49;75.34;98254.91;104925;1283;26755;-88
2022/08/31 02:04:04;;;;;;;3.40;2.30;;;;;;;16.38;74.70;98256.09;105403;1282;25365;-88
2022/08/31 02:06:34;;;;;;;2.50;2.20;;;;;;;16.33;77.93;98249.52;105487;1283;25282;-89
2022/08/31 02:09:04;;;;;;;3.80;2.50;;;;;;;16.76;77.82;98248.17;105745;1282;22639;-87
2022/08/31 02:11:32;;;;;;;3.50;2.40;;;;;;;17.11;76.17;98242.66;105704;1282;25349;-87
2022/08/31 02:14:00;;;;;;;4.30;2.40;;;;;;;17.53;74.75;98246.39;105489;1282;24294;-88
2022/08/31 02:16:29;;;;;;;2.20;1.90;;;;;;;17.83;73.14;98243.12;105603;1282;22571;-87
2022/08/31 02:18:57;;;;;;;8.20;2.30;;;;;;;18.01;72.75;98237.40;105381;1283;22569;-87
2022/08/31 02:21:25;;;;;;;4.10;2.40;;;;;;;18.00;72.40;98233.63;105439;1282;25369;-87
2022/08/31 02:23:54;;;;;;;4.40;2.50;;;;;;;17.94;72.77;98235.20;105576;1283;24250;-89
2022/08/31 02:26:25;;;;;;;3.40;2.00;;;;;;;17.59;72.66;98229.79;105701;1282;25413;-86
2022/08/31 02:28:53;;;;;;;4.40;2.00;;;;;;;17.15;72.74;98228.64;105498;1282;22540;-88
2022/08/31 02:31:21;;;;;;;3.20;2.20;;;;;;;16.65;73.04;98231.58;105704;1282;25922;-88
2022/08/31 02:33:52;;;;;;;6.30;2.00;;;;;;;16.26;73.48;98229.92;105525;1282;24426;-88
2022/08/31 02:36:21;;;;;;;3.50;2.40;;;;;;;15.94;73.86;98226.44;106019;1282;22671;-84
2022/08/31 02:38:51;;;;;;;3.30;2.30;;;;;;;15.71;75.24;98229.58;106030;1282;22556;-87
2022/08/31 02:41:20;;;;;;;4.90;2.40;;;;;;;15.78;75.28;98227.11;105306;1282;22741;-87
2022/08/31 02:43:48;;;;;;;3.30;2.20;;;;;;;15.79;74.71;98230.23;105661;1282;22553;-88
2022/08/31 02:46:17;;;;;;;3.40;2.20;;;;;;;15.77;76.03;98231.17;105421;1283;22673;-86
2022/08/31 02:48:51;;;;;;;4.70;2.40;;;;;;;16.00;76.14;98232.05;105478;1282;23315;-87
2022/08/31 02:51:20;;;;;;;3.90;2.50;;;;;;;16.01;74.76;98231.30;105584;1282;22555;-89
2022/08/31 02:53:49;;;;;;;4.10;2.70;;;;;;;15.98;75.09;98233.35;105481;1282;22637;-87
2022/08/31 02:56:18;;;;;;;6.80;2.30;;;;;;;16.17;77.01;98231.02;105647;1282;22582;-86
2022/08/31 02:58:46;;;;;;;2.90;2.30;;;;;;;16.45;75.82;98232.50;105571;1282;25355;-88
2022/08/31 03:01:14;;;;;;;3.70;2.40;;;;;;;16.37;74.58;98235.84;105389;1282;23503;-87
2022/08/31 03:03:42;;;;;;;4.00;2.30;;;;;;;16.38;75.62;98234.95;105553;1282;22685;-88
2022/08/31 03:06:13;;;;;;;2.60;1.80;;;;;;;16.36;74.55;98236.33;105597;1282;23734;-82
2022/08/31 03:08:42;;;;;;;4.20;1.90;;;;;;;16.21;75.41;98235.31;105664;1282;24205;-87
2022/08/31 03:11:10;;;;;;;4.20;2.00;;;;;;;16.38;76.04;98238.84;105466;1282;22563;-87
2022/08/31 03:13:41;;;;;;;3.30;2.00;;;;;;;16.43;75.32;98238.23;105502;1282;22562;-87
2022/08/31 03:16:12;;;;;;;3.30;2.00;;;;;;;16.64;77.85;98239.39;105470;1283;22706;-87
2022/08/31 03:18:41;;;;;;;3.20;1.90;;;;;;;17.02;77.19;98241.06;105625;1282;22627;-85
2022/08/31 03:21:09;;;;;;;2.30;1.80;;;;;;;17.37;75.88;98242.19;105372;1282;23242;-88
2022/08/31 03:23:37;;;;;;;5.30;2.20;;;;;;;17.67;74.50;98240.52;105510;1282;23245;-87
2022/08/31 03:26:06;;;;;;;3.40;1.90;;;;;;;17.84;73.67;98241.83;105571;1282;24231;-86
2022/08/31 03:28:36;;;;;;;2.90;2.00;;;;;;;18.01;73.31;98242.70;105433;1283;22708;-86
2022/08/31 03:31:31;;;;;;;3.00;1.90;;;;;;;18.05;72.64;98237.06;105573;1282;24245;-86
2022/08/31 03:33:59;;;;;;;2.40;1.90;;;;;;;17.96;73.06;98240.92;105688;1282;24423;-85
2022/08/31 03:36:28;;;;;;;2.50;1.80;;;;;;;17.67;73.06;98244.01;105623;1282;25518;-87
2022/08/31 03:38:56;;;;;;;4.50;2.70;;;;;;;17.64;74.10;98243.52;105504;1282;24406;-87
2022/08/31 03:41:24;;;;;;;2.30;1.90;;;;;;;17.61;73.28;98245.58;105602;1282;25412;-85
2022/08/31 03:43:53;;;;;;;3.30;2.40;;;;;;;17.52;73.62;98246.08;105419;1282;25346;-86
2022/08/31 03:46:22;;;;;;;3.40;2.30;;;;;;;17.32;73.32;98249.17;105424;1282;23780;-84
2022/08/31 03:48:50;;;;;;;4.20;2.20;;;;;;;17.18;73.27;98244.40;105451;1282;25364;-86
2022/08/31 03:51:19;;;;;;;2.60;2.00;;;;;;;16.84;72.54;98246.84;105644;1282;25312;-86
2022/08/31 03:53:47;;;;;;;4.00;2.40;;;;;;;16.71;74.63;98246.71;105251;1283;22545;-87
2022/08/31 03:56:19;;;;;;;6.30;4.40;;;;;;;16.68;73.86;98247.52;105682;1282;23241;-87
2022/08/31 03:58:49;;;;;;;17.00;15.50;;;;;;;16.57;75.04;98245.42;105691;1282;22590;-85
2022/08/31 04:01:46;;;;;;;6.20;4.80;;;;;;;16.81;75.64;98242.32;104819;1282;22538;-86
2022/08/31 04:04:52;;;;;;;6.30;4.50;;;;;;;16.96;77.55;98240.48;105627;1282;24918;-85
2022/08/31 04:07:40;;;;;;;7.00;4.60;;;;;;;17.16;75.26;98238.63;105699;1282;24371;-86
2022/08/31 04:10:32;;;;;;;8.20;4.20;;;;;;;17.31;75.35;98244.06;105658;1282;24342;-87
2022/08/31 04:13:19;;;;;;;6.20;4.30;;;;;;;17.30;74.02;98244.34;105644;1282;22556;-85
2022/08/31 04:15:59;;;;;;;8.30;3.50;;;;;;;17.23;74.24;98244.55;105681;1282;22562;-84
2022/08/31 04:18:46;;;;;;;5.30;3.90;;;;;;;17.17;74.05;98242.00;105700;1282;22694;-86
2022/08/31 04:21:21;;;;;;;7.20;4.20;;;;;;;17.03;73.81;98243.27;105489;1284;23185;-85
2022/08/31 04:23:51;;;;;;;6.00;4.30;;;;;;;16.82;73.23;98250.76;105528;1282;25314;-85
2022/08/31 04:26:25;;;;;;;5.90;3.80;;;;;;;16.53;73.60;98249.86;105373;1282;22709;-85
2022/08/31 04:28:54;;;;;;;10.30;5.10;;;;;;;16.55;74.49;98250.24;105735;1282;22604;-86
2022/08/31 04:31:24;;;;;;;7.60;4.50;;;;;;;16.54;74.65;98256.71;105469;1284;22546;-85
2022/08/31 04:33:55;;;;;;;9.10;5.30;;;;;;;16.73;76.25;98257.69;105526;1282;25369;-87
2022/08/31 04:36:26;;;;;;;9.10;5.50;;;;;;;16.85;75.65;98255.34;105402;1282;26565;-86
2022/08/31 04:38:57;;;;;;;7.80;5.60;;;;;;;16.92;76.47;98257.13;105475;1283;22585;-85
2022/08/31 04:41:27;;;;;;;9.00;5.10;;;;;;;16.95;74.33;98260.73;105452;1283;25350;-86
2022/08/31 04:43:57;;;;;;;11.00;6.40;;;;;;;16.78;74.32;98258.92;105448;1283;25349;-86
2022/08/31 04:46:26;;;;;;;10.90;6.30;;;;;;;16.69;74.33;98256.30;105512;1283;22726;-86
2022/08/31 04:48:56;;;;;;;7.30;5.20;;;;;;;16.67;75.06;98261.81;105494;1284;23011;-87
2022/08/31 04:51:27;;;;;;;14.50;9.10;;;;;;;16.81;74.91;98259.20;105367;1283;22566;-86
2022/08/31 04:53:56;;;;;;;12.80;9.10;;;;;;;16.71;74.64;98259.88;105680;1282;25369;-86
2022/08/31 04:56:27;;;;;;;13.80;8.80;;;;;;;16.87;77.93;98261.29;105413;1282;25365;-86
2022/08/31 04:59:07;;;;;;;14.40;9.30;;;;;;;17.30;77.68;98256.09;105689;1282;22659;-87
2022/08/31 05:01:44;;;;;;;14.00;10.10;;;;;;;17.57;75.75;98259.08;105663;1282;25356;-87
2022/08/31 05:04:33;;;;;;;15.50;8.90;;;;;;;17.54;74.88;98259.30;105636;1283;24504;-87
2022/08/31 05:07:02;;;;;;;12.80;8.30;;;;;;;17.43;74.12;98257.73;105662;1282;24374;-85
2022/08/31 05:09:29;;;;;;;12.70;7.40;;;;;;;17.24;74.59;98262.90;105279;1285;24198;-85
2022/08/31 05:11:57;;;;;;;8.60;6.50;;;;;;;17.23;75.04;98262.00;105513;1282;22779;-86
2022/08/31 05:14:25;;;;;;;8.00;4.90;;;;;;;17.28;76.67;98263.29;105601;1282;22714;-86
2022/08/31 05:17:06;;;;;;;7.40;4.30;;;;;;;17.65;77.29;98265.73;105622;1284;25416;-88
2022/08/31 05:19:42;;;;;;;6.90;3.80;;;;;;;17.84;75.77;98270.23;105580;1283;24384;-87
2022/08/31 05:22:13;;;;;;;6.10;3.70;;;;;;;18.04;75.55;98274.48;105916;1282;25253;-87
2022/08/31 05:24:43;;;;;;;5.70;3.30;;;;;;;18.00;74.60;98273.82;106541;1282;22608;-85
2022/08/31 05:27:12;;;;;;;5.70;3.40;;;;;;;17.89;75.13;98277.40;108937;1282;22533;-85
2022/08/31 05:29:40;;;;;;;5.80;3.40;;;;;;;18.06;76.06;98278.46;109219;1282;22703;-83
2022/08/31 05:32:27;;;;;;;4.40;3.00;;;;;;;18.15;75.09;98283.59;108993;1282;22659;-84
2022/08/31 05:34:55;;;;;;;4.10;2.70;;;;;;;18.31;75.35;98278.27;109237;1282;22634;-86
2022/08/31 05:37:23;;;;;;;3.70;2.60;;;;;;;18.48;74.62;98282.70;109203;1282;22715;-86
2022/08/31 05:39:51;;;;;;;5.20;2.80;;;;;;;18.50;74.30;98282.38;108979;1282;22677;-84
2022/08/31 05:42:19;;;;;;;5.90;2.40;;;;;;;18.35;74.34;98283.63;107663;1282;22660;-84
2022/08/31 05:44:48;;;;;;;3.90;2.50;;;;;;;18.18;74.04;98284.61;108971;1282;22547;-83
2022/08/31 05:47:16;;;;;;;4.70;2.30;;;;;;;18.04;74.21;98284.80;108781;1282;23071;-85
2022/08/31 05:49:44;;;;;;;6.10;2.40;;;;;;;17.89;74.05;98285.90;108940;1282;22529;-84
2022/08/31 05:52:41;;;;;;;6.40;2.10;;;;;;;17.78;74.42;98286.67;108770;1285;22807;-85
2022/08/31 05:55:10;;;;;;;;;;;;;;;17.79;74.59;98291.30;108925;1282;22601;-86
2022/08/31 05:57:39;;;;;;;4.30;2.30;;;;;;;17.79;74.47;98293.02;109186;1281;22668;-88
2022/08/31 06:00:09;;;;;;;5.70;2.50;;;;;;;17.73;74.62;98292.09;108919;1282;22622;-87
2022/08/31 06:03:45;;;;;;;3.60;2.20;;;;;;;17.83;74.53;98295.14;106450;1282;25350;-87
2022/08/31 06:06:13;;;;;;;5.20;2.00;;;;;;;17.85;74.21;98299.51;106003;1282;23374;-87
2022/08/31 06:08:43;;;;;;;3.30;2.20;;;;;;;17.90;74.37;98299.52;105941;1283;23542;-87
2022/08/31 06:11:18;;;;;;;3.20;1.80;;;;;;;17.93;74.01;98305.90;106053;1282;24227;-88
2022/08/31 06:13:50;;;;;;;4.30;2.30;;;;;;;17.90;73.91;98307.29;105950;1283;25467;-89
2022/08/31 06:16:19;;;;;;;4.60;2.30;;;;;;;17.91;74.22;98311.92;105798;1282;22644;-88
2022/08/31 06:18:49;;;;;;;4.80;2.80;;;;;;;17.96;74.13;98314.41;105914;1282;22663;-88
2022/08/31 06:21:24;;;;;;;5.90;2.70;;;;;;;17.96;74.09;98316.84;106254;1281;26569;-87
2022/08/31 06:23:55;;;;;;;;;;;;;;;17.96;74.02;98318.07;105975;1282;22562;-88
2022/08/31 06:26:27;;;;;;;5.60;3.10;;;;;;;17.84;73.98;98317.96;106564;1282;22791;-87
2022/08/31 06:28:58;;;;;;;5.20;2.90;;;;;;;17.80;74.29;98321.95;105686;1282;25446;-87
2022/08/31 06:31:32;;;;;;;4.30;2.50;;;;;;;17.84;74.30;98323.98;105522;1284;25594;-88
2022/08/31 06:34:01;;;;;;;4.60;2.50;;;;;;;17.95;74.57;98323.49;105787;1281;25369;-86
2022/08/31 06:36:48;;;;;;;5.30;2.50;;;;;;;18.14;74.58;98311.84;105672;1282;22541;-89
2022/08/31 06:39:38;;;;;;;7.40;2.50;;;;;;;18.15;74.18;98319.22;105509;1284;25533;-88
2022/08/31 06:42:32;;;;;;;6.10;2.80;;;;;;;18.19;73.99;98316.04;105325;1282;22640;-87
2022/08/31 06:45:04;;;;;;;4.90;2.20;;;;;;;18.22;74.55;98310.55;105650;1282;23425;-87
2022/08/31 06:47:49;;;;;;;5.10;2.60;;;;;;;18.42;74.57;98315.35;105657;1282;22563;-86
2022/08/31 06:50:18;;;;;;;7.80;3.10;;;;;;;18.52;73.92;98319.56;105607;1281;25212;-86
2022/08/31 06:52:48;;;;;;;3.60;2.60;;;;;;;18.40;73.73;98307.10;105611;1282;23337;-87
2022/08/31 06:55:52;;;;;;;4.20;2.50;;;;;;;18.49;73.86;98320.09;104792;1286;24912;-88
2022/08/31 06:59:00;;;;;;;5.20;2.70;;;;;;;18.49;73.96;98320.95;105957;1281;22667;-86
2022/08/31 07:01:40;;;;;;;3.50;2.20;;;;;;;18.52;74.36;98316.05;105753;1282;22562;-87
2022/08/31 07:04:18;;;;;;;4.60;2.80;;;;;;;18.70;74.30;98313.72;105574;1282;25409;-87
2022/08/31 07:06:47;;;;;;;7.10;3.00;;;;;;;18.72;73.78;98314.91;105646;1282;25406;-85
2022/08/31 07:09:16;;;;;;;4.10;2.70;;;;;;;18.72;73.76;98314.19;105444;1282;24412;-86
2022/08/31 07:11:50;;;;;;;5.20;2.90;;;;;;;18.75;73.70;98317.03;105897;1282;22565;-87
2022/08/31 07:14:23;;;;;;;4.40;2.80;;;;;;;18.72;73.35;98321.42;105438;1282;22703;-86
2022/08/31 07:16:55;;;;;;;5.40;3.00;;;;;;;18.67;73.60;98330.31;105711;1282;22643;-85
2022/08/31 07:19:25;;;;;;;6.90;3.40;;;;;;;18.66;73.57;98334.88;105628;1282;22574;-86
2022/08/31 07:21:57;;;;;;;10.00;3.30;;;;;;;18.72;73.78;98339.98;105803;1283;22655;-86
2022/08/31 07:24:32;;;;;;;3.60;2.60;;;;;;;18.69;73.54;98343.66;105494;1283;23235;-85
2022/08/31 07:27:03;;;;;;;3.40;2.50;;;;;;;18.57;73.72;98346.08;105436;1283;25376;-86
2022/08/31 07:29:50;;;;;;;6.40;3.20;;;;;;;18.50;73.63;98346.50;105573;1282;22704;-85
2022/08/31 07:32:19;;;;;;;6.40;3.60;;;;;;;18.39;73.77;98345.02;105721;1283;23393;-86
2022/08/31 07:34:50;;;;;;;3.60;2.70;;;;;;;18.41;73.87;98344.77;105602;1283;25733;-85
2022/08/31 07:43:12;;;;;;;4.00;2.30;;;;;;;18.81;73.87;98354.91;105748;1280;22550;-87
2022/08/31 07:45:41;;;;;;;6.20;2.70;;;;;;;18.91;73.70;98352.41;105954;1282;26078;-86
2022/08/31 07:48:11;;;;;;;6.80;3.10;;;;;;;18.92;73.07;98354.93;105622;1282;22753;-86
2022/08/31 07:51:09;;;;;;;5.70;3.60;;;;;;;18.88;73.48;98358.31;105697;1283;22564;-85
2022/08/31 07:54:03;;;;;;;5.20;3.10;;;;;;;19.02;73.14;98358.45;105725;1282;22628;-86
2022/08/31 07:56:42;;;;;;;4.10;2.80;;;;;;;19.04;72.65;98359.77;105775;1283;22591;-87
2022/08/31 07:59:13;;;;;;;4.50;2.70;;;;;;;18.98;72.18;98361.70;106095;1282;24099;-84
2022/08/31 08:01:44;;;;;;;6.20;4.70;;;;;;;18.92;72.22;98360.23;105576;1284;22653;-87
2022/08/31 08:04:20;;;;;;;5.90;4.00;;;;;;;18.88;71.69;98360.52;105749;1284;25456;-85
2022/08/31 08:07:17;;;;;;;6.20;3.00;;;;;;;19.00;72.14;98365.10;105565;1282;25458;-85
2022/08/31 08:10:18;;;;;;;5.70;2.70;;;;;;;19.00;71.44;98365.33;105710;1283;25714;-86
2022/08/31 08:13:11;;;;;;;4.80;2.80;;;;;;;19.03;71.74;98365.66;105579;1282;22616;-88
2022/08/31 08:15:49;;;;;;;4.50;3.00;;;;;;;19.01;71.26;98366.76;105774;1283;23383;-85
2022/08/31 08:18:39;;;;;;;5.20;3.20;;;;;;;19.12;71.84;98368.41;105771;1283;25247;-85
2022/08/31 08:21:07;;;;;;;4.90;3.00;;;;;;;19.21;71.67;98367.98;105389;1283;22724;-86
2022/08/31 08:23:35;;;;;;;5.80;3.50;;;;;;;19.37;71.55;98364.27;105588;1284;22563;-86
2022/08/31 08:26:44;;;;;;;6.60;3.20;;;;;;;19.43;71.08;98369.51;105380;1287;25517;-87
2022/08/31 08:29:32;;;;;;;4.30;2.30;;;;;;;19.49;71.09;98367.52;105702;1283;25238;-86
2022/08/31 08:32:02;;;;;;;5.90;3.20;;;;;;;19.64;71.13;98366.68;105576;1282;25433;-86
2022/08/31 08:34:31;;;;;;;3.80;2.50;;;;;;;19.89;70.75;98368.17;105916;1282;24226;-86
2022/08/31 08:37:06;;;;;;;4.20;3.10;;;;;;;20.03;69.98;98364.52;105723;1283;22700;-87
2022/08/31 08:39:34;;;;;;;5.80;3.00;;;;;;;20.11;70.04;98361.66;105563;1284;22671;-87
2022/08/31 08:42:23;;;;;;;5.00;3.10;;;;;;;20.20;69.73;98366.77;105716;1284;24259;-86
2022/08/31 08:44:51;;;;;;;3.70;2.50;;;;;;;20.23;69.61;98368.39;106084;1282;25482;-86
2022/08/31 08:47:24;;;;;;;4.70;3.00;;;;;;;20.36;68.96;98372.27;106020;1283;22635;-87
2022/08/31 08:50:04;;;;;;;5.70;2.90;;;;;;;20.35;68.72;98376.77;105553;1283;22728;-86
2022/08/31 08:52:42;;;;;;;3.80;2.90;;;;;;;20.30;68.38;98373.59;105613;1284;22858;-88
2022/08/31 08:55:25;;;;;;;4.70;3.10;;;;;;;20.25;68.27;98372.91;105480;1283;25316;-88
2022/08/31 08:57:54;;;;;;;4.60;2.80;;;;;;;20.26;68.44;98367.45;105728;1284;25384;-89
2022/08/31 09:00:27;;;;;;;3.60;2.60;;;;;;;20.34;68.41;98368.78;105542;1284;22778;-88
2022/08/31 09:03:11;;;;;;;4.30;2.60;;;;;;;20.42;67.30;98364.60;105448;1284;25316;-88
2022/08/31 09:06:22;;;;;;;4.00;2.40;;;;;;;20.40;67.35;98363.91;105443;1283;24301;-89
2022/08/31 09:08:57;;;;;;;5.10;3.10;;;;;;;20.45;67.14;98358.17;105709;1284;22561;-88
2022/08/31 09:11:45;;;;;;;4.60;3.10;;;;;;;20.55;67.11;98359.14;105766;1284;25472;-89
2022/08/31 09:14:46;;;;;;;4.90;3.60;;;;;;;20.60;66.57;98351.52;105595;1284;26591;-88
2022/08/31 09:17:30;;;;;;;4.20;2.60;;;;;;;20.65;66.46;98349.23;105608;1283;22604;-89
2022/08/31 09:19:58;;;;;;;3.80;2.60;;;;;;;20.63;66.25;98350.28;105728;1284;25325;-87
2022/08/31 09:22:32;;;;;;;5.10;2.90;;;;;;;20.70;65.93;98347.23;105603;1284;22539;-87
2022/08/31 09:25:03;;;;;;;6.80;2.90;;;;;;;20.65;65.16;98343.52;105667;1284;22708;-88
2022/08/31 09:27:59;;;;;;;3.90;2.30;;;;;;;20.57;65.34;98346.92;105962;1282;25424;-88
2022/08/31 09:30:52;;;;;;;5.40;2.70;;;;;;;20.52;64.45;98343.97;105772;1284;22583;-89
2022/08/31 09:33:23;;;;;;;4.00;2.40;;;;;;;20.43;64.53;98346.85;105813;1284;25325;-88
2022/08/31 09:35:57;;;;;;;4.60;2.30;;;;;;;20.34;64.27;98345.65;105863;1282;23949;-89
2022/08/31 09:38:33;;;;;;;7.20;2.90;;;;;;;20.29;64.08;98345.73;105702;1284;22567;-89
2022/08/31 09:41:07;;;;;;;4.80;2.70;;;;;;;20.28;64.07;98340.38;105947;1284;22541;-85
2022/08/31 09:43:38;;;;;;;5.30;2.70;;;;;;;20.39;64.32;98333.06;105720;1282;22632;-87
2022/08/31 09:46:29;;;;;;;6.30;3.30;;;;;;;20.56;63.80;98328.92;105691;1284;22574;-87
2022/08/31 09:49:01;;;;;;;6.10;2.70;;;;;;;20.50;62.70;98325.30;105704;1284;22580;-86
2022/08/31 09:51:33;;;;;;;5.20;2.40;;;;;;;20.33;62.31;98325.42;105751;1284;22610;-86
2022/08/31 09:57:14;;;;;;;4.50;2.70;;;;;;;20.31;63.93;98326.15;105964;1284;24015;-86
2022/08/31 09:59:47;;;;;;;3.10;2.30;;;;;;;20.40;63.10;98331.54;105761;1282;22541;-86
2022/08/31 10:02:21;;;;;;;4.80;2.50;;;;;;;20.39;62.94;98327.92;105900;1283;22629;-86
2022/08/31 10:05:05;;;;;;;4.30;2.80;;;;;;;20.37;63.14;98331.31;105852;1283;22601;-84
2022/08/31 10:07:54;;;;;;;5.20;2.50;;;;;;;20.33;62.42;98328.16;105843;1283;25324;-87
2022/08/31 10:10:26;;;;;;;7.30;3.30;;;;;;;20.18;62.67;98329.02;105924;1284;26515;-87
2022/08/31 10:13:08;;;;;;;3.20;2.50;;;;;;;20.15;62.85;98328.32;106081;1282;22636;-86
2022/08/31 10:15:47;;;;;;;4.70;2.50;;;;;;;20.13;63.01;98326.62;105661;1282;25335;-86
2022/08/31 10:18:30;;;;;;;4.60;2.50;;;;;;;20.16;62.61;98325.70;105787;1282;25250;-86
2022/08/31 10:21:06;;;;;;;6.90;2.20;;;;;;;20.14;62.47;98327.37;106044;1282;22596;-85
2022/08/31 10:24:01;;;;;;;7.40;2.80;;;;;;;20.15;62.86;98324.19;105680;1282;25366;-86
2022/08/31 10:26:39;;;;;;;5.10;3.00;;;;;;;20.18;62.76;98327.02;105613;1283;22566;-86
2022/08/31 10:29:14;;;;;;;3.90;2.10;;;;;;;20.22;62.62;98318.73;106436;1282;22569;-85
2022/08/31 10:31:55;;;;;;;4.60;2.70;;;;;;;20.23;62.59;98318.66;105947;1282;25248;-88
2022/08/31 10:37:32;;;;;;;;;;;;;;;20.46;62.84;98319.33;105865;1282;25250;-85
2022/08/31 10:40:23;;;;;;;3.40;1.90;;;;;;;20.67;62.32;98319.69;105828;1282;22583;-88
2022/08/31 10:43:12;;;;;;;3.60;2.30;;;;;;;20.78;61.70;98318.64;105595;1282;24251;-85
2022/08/31 10:45:45;;;;;;;5.30;1.90;;;;;;;20.75;61.50;98316.61;105935;1284;24367;-87
2022/08/31 10:48:23;;;;;;;4.00;2.20;;;;;;;20.82;61.58;98314.03;105935;1282;22572;-88
2022/08/31 10:51:18;;;;;;;4.10;1.90;;;;;;;20.88;61.39;98312.59;106075;1282;22586;-87
2022/08/31 10:53:55;;;;;;;4.80;2.40;;;;;;;20.92;61.08;98317.61;105672;1283;22682;-88
2022/08/31 10:56:38;;;;;;;2.30;1.70;;;;;;;21.03;61.29;98312.55;105863;1282;25298;-87
2022/08/31 10:59:18;;;;;;;3.90;2.00;;;;;;;21.22;60.98;98308.81;105732;1282;23649;-87
2022/08/31 11:02:01;;;;;;;4.20;2.10;;;;;;;21.41;60.86;98313.60;106100;1283;22568;-90
2022/08/31 11:04:44;;;;;;;4.60;2.40;;;;;;;21.52;60.13;98312.20;106004;1282;23966;-87
2022/08/31 11:07:38;;;;;;;4.40;2.10;;;;;;;21.57;60.12;98312.69;105920;1282;24213;-88
2022/08/31 11:10:25;;;;;;;2.80;2.20;;;;;;;21.50;59.72;98312.95;105957;1282;22571;-87
2022/08/31 11:13:01;;;;;;;4.00;2.40;;;;;;;21.50;60.17;98310.61;105755;1282;22548;-88
2022/08/31 11:15:44;;;;;;;3.70;2.10;;;;;;;21.38;58.16;98308.46;105571;1284;23304;-88
2022/08/31 11:18:24;;;;;;;6.10;2.50;;;;;;;21.18;57.76;98305.98;105997;1282;22567;-86
2022/08/31 11:21:17;;;;;;;3.40;2.30;;;;;;;20.80;57.93;98307.66;105928;1282;22784;-87
2022/08/31 11:23:55;;;;;;;2.70;1.80;;;;;;;20.70;58.74;98306.41;105630;1282;22583;-88
2022/08/31 11:26:42;;;;;;;4.20;2.60;;;;;;;20.79;58.34;98300.35;105848;1282;22603;-88
2022/08/31 11:29:42;;;;;;;3.40;1.90;;;;;;;20.84;58.00;98298.75;105679;1282;24104;-89
2022/08/31 11:32:16;;;;;;;3.50;2.20;;;;;;;20.98;58.42;98301.54;105810;1284;22933;-88
2022/08/31 11:34:52;;;;;;;4.40;2.20;;;;;;;21.08;58.45;98298.64;105507;1283;24235;-89
2022/08/31 11:37:51;;;;;;;5.20;2.00;;;;;;;21.29;58.03;98297.45;105659;1282;22806;-89
2022/08/31 11:40:42;;;;;;;3.60;1.90;;;;;;;21.45;57.21;98293.09;105699;1282;22597;-88
2022/08/31 11:43:34;;;;;;;4.40;2.20;;;;;;;21.57;58.03;98292.79;106010;1282;24248;-88
2022/08/31 11:46:27;;;;;;;2.90;2.10;;;;;;;21.69;57.04;98293.20;105872;1283;22543;-87
2022/08/31 11:48:58;;;;;;;2.40;1.60;;;;;;;21.68;55.71;98292.54;105784;1283;24264;-89
2022/08/31 11:51:43;;;;;;;7.20;2.60;;;;;;;21.57;53.72;98289.73;105947;1284;22707;-88
2022/08/31 11:54:25;;;;;;;2.30;1.80;;;;;;;21.39;55.38;98292.67;105781;1282;22682;-88
2022/08/31 11:56:55;;;;;;;2.50;2.00;;;;;;;21.50;55.40;98289.13;106669;1282;22559;-89
2022/08/31 11:59:25;;;;;;;4.00;1.90;;;;;;;21.63;54.66;98293.85;105827;1283;23196;-89
2022/08/31 12:01:55;;;;;;;3.00;1.90;;;;;;;21.66;53.87;98292.50;105793;1282;25357;-88
2022/08/31 12:04:40;;;;;;;2.80;1.80;;;;;;;21.63;53.95;98289.30;106188;1282;25312;-89
2022/08/31 12:07:35;;;;;;;2.80;1.90;;;;;;;21.57;54.11;98288.15;105637;1282;25240;-89
2022/08/31 12:10:33;;;;;;;3.30;2.10;;;;;;;21.33;52.77;98285.88;105707;1282;22539;-89
2022/08/31 12:13:35;;;;;;;2.20;1.80;;;;;;;21.22;53.92;98283.67;106183;1282;22667;-89
2022/08/31 12:16:19;;;;;;;4.00;1.90;;;;;;;21.29;53.85;98283.42;106013;1281;22553;-88
2022/08/31 12:25:40;;;;;;;4.30;2.10;;;;;;;21.29;54.67;98276.70;106230;1281;22586;-88
2022/08/31 12:28:08;;;;;;;3.00;2.10;;;;;;;21.43;54.86;98275.66;105855;1282;25523;-88